createdAt,value
2023-05-05T00:00:00.655Z,4.3
2023-05-05T00:05:00.705Z,4.0
2023-05-05T00:10:00.607Z,6.5
2023-05-05T00:15:00.607Z,7.6
2023-05-05T00:20:00.791Z,6.8
2023-05-05T00:25:00.607Z,4.3
2023-05-05T00:30:00.610Z,6.5
2023-05-05T00:35:00.590Z,6.1
2023-05-05T00:40:00.616Z,8.3
2023-05-05T00:45:00.587Z,7.6
2023-05-05T00:50:00.575Z,8.3
2023-05-05T00:55:00.583Z,4.7
2023-05-05T01:00:00.579Z,9.4
2023-05-05T01:05:00.600Z,7.2
2023-05-05T01:10:20.945Z,4.7
2023-05-05T01:15:00.592Z,5.8
2023-05-05T01:20:00.660Z,7.9
2023-05-05T01:25:00.620Z,8.3
2023-05-05T01:30:00.547Z,8.6
2023-05-05T01:35:00.613Z,7.2
2023-05-05T01:40:00.520Z,7.6
2023-05-05T01:45:00.756Z,4.3
2023-05-05T01:50:00.601Z,7.6
2023-05-05T01:55:00.653Z,5.0
2023-05-05T02:00:00.593Z,5.4
2023-05-05T02:05:00.581Z,5.0
2023-05-05T02:10:00.599Z,6.1
2023-05-05T02:15:00.673Z,5.4
2023-05-05T02:20:00.593Z,6.5
2023-05-05T02:25:00.651Z,5.4
2023-05-05T02:30:00.608Z,7.6
2023-05-05T02:35:00.593Z,5.8
2023-05-05T02:40:00.588Z,8.3
2023-05-05T02:45:00.589Z,4.0
2023-05-05T02:50:00.614Z,6.1
2023-05-05T02:55:00.605Z,6.5
2023-05-05T03:00:00.586Z,7.2
2023-05-05T03:05:00.585Z,4.0
2023-05-05T03:10:00.541Z,5.0
2023-05-05T03:15:00.596Z,7.2
2023-05-05T03:20:04.077Z,6.8
2023-05-05T03:25:00.595Z,5.4
2023-05-05T03:30:00.618Z,6.5
2023-05-05T03:35:00.636Z,9.7
2023-05-05T03:40:00.605Z,7.6
2023-05-05T03:45:00.600Z,7.9
2023-05-05T03:50:00.619Z,8.6
2023-05-05T03:55:00.604Z,4.7
2023-05-05T04:00:00.625Z,5.8
2023-05-05T04:05:00.641Z,7.2
2023-05-05T04:10:00.607Z,7.2
2023-05-05T04:15:00.628Z,7.6
2023-05-05T04:20:00.633Z,5.8
2023-05-05T04:25:00.591Z,7.6
2023-05-05T04:30:00.611Z,6.1
2023-05-05T04:35:00.569Z,7.2
2023-05-05T04:40:00.590Z,5.0
2023-05-05T04:45:00.595Z,11.2
2023-05-05T04:50:00.609Z,6.5
2023-05-05T04:55:00.616Z,8.3
2023-05-05T05:00:00.618Z,9.0
2023-05-05T05:05:00.720Z,11.2
2023-05-05T05:10:00.778Z,10.4
2023-05-05T05:15:00.633Z,12.2
2023-05-05T05:20:00.645Z,10.4
2023-05-05T05:25:00.606Z,16.2
2023-05-05T05:30:00.662Z,17.3
2023-05-05T05:35:00.761Z,10.8
2023-05-05T05:40:00.632Z,15.1
2023-05-05T05:45:00.627Z,18.0
2023-05-05T05:50:00.604Z,13.3
2023-05-05T05:55:00.624Z,9.4
2023-05-05T06:00:04.823Z,13.7
2023-05-05T06:05:00.676Z,17.3
2023-05-05T06:15:00.619Z,15.5
2023-05-05T06:20:00.592Z,14.8
2023-05-05T06:25:00.589Z,16.2
2023-05-05T06:30:00.721Z,15.1
2023-05-05T06:35:00.576Z,10.1
2023-05-05T06:40:00.647Z,19.4
2023-05-05T06:45:00.619Z,14.8
2023-05-05T06:50:00.647Z,21.2
2023-05-05T06:55:00.628Z,10.4
2023-05-05T07:00:00.621Z,16.6
2023-05-05T07:05:00.735Z,17.3
2023-05-05T07:10:00.583Z,15.5
2023-05-05T07:15:26.518Z,9.0
2023-05-05T07:20:00.649Z,15.8
2023-05-05T07:25:00.666Z,10.1
2023-05-05T07:30:00.669Z,6.1
2023-05-05T07:35:00.616Z,14.4
2023-05-05T07:40:00.640Z,14.4
2023-05-05T07:45:00.625Z,7.9
2023-05-05T07:50:00.712Z,12.2
2023-05-05T07:55:00.638Z,17.6
2023-05-05T08:00:00.646Z,17.6
2023-05-05T08:05:00.745Z,16.6
2023-05-05T08:10:00.652Z,16.9
2023-05-05T08:15:00.739Z,18.4
2023-05-05T08:20:00.590Z,21.6
2023-05-05T08:25:00.607Z,19.4
2023-05-05T08:30:00.679Z,24.5
2023-05-05T08:40:00.712Z,18.4
2023-05-05T08:45:00.686Z,15.5
2023-05-05T08:50:00.670Z,13.3
2023-05-05T08:55:00.654Z,17.3
2023-05-05T09:00:00.694Z,14.8
2023-05-05T09:05:00.692Z,7.9
2023-05-05T09:10:00.622Z,19.4
2023-05-05T09:15:00.839Z,11.2
2023-05-05T09:20:00.970Z,11.5
2023-05-05T09:25:00.663Z,17.3
2023-05-05T09:30:00.718Z,18.4
2023-05-05T09:35:00.673Z,15.1
2023-05-05T09:40:00.708Z,24.5
2023-05-05T09:45:00.748Z,20.5
2023-05-05T09:50:00.681Z,15.8
2023-05-05T09:55:00.687Z,25.9
2023-05-05T10:00:00.750Z,27.0
2023-05-05T10:05:02.746Z,15.8
2023-05-05T10:10:00.645Z,11.9
2023-05-05T10:15:00.727Z,15.8
2023-05-05T10:20:00.683Z,19.8
2023-05-05T10:25:00.637Z,26.6
2023-05-05T10:30:00.718Z,22.0
2023-05-05T10:35:00.758Z,10.1
2023-05-05T10:40:00.752Z,24.5
2023-05-05T10:45:01.005Z,14.8
2023-05-05T10:50:00.676Z,17.3
2023-05-05T10:55:00.721Z,16.9
2023-05-05T11:00:00.658Z,13.7
2023-05-05T11:05:00.627Z,18.4
2023-05-05T11:10:00.750Z,17.3
2023-05-05T11:15:00.675Z,9.7
2023-05-05T11:20:00.670Z,19.4
2023-05-05T11:25:00.680Z,28.1
2023-05-05T11:30:00.669Z,6.1
2023-05-05T11:35:00.681Z,22.0
2023-05-05T11:40:00.781Z,19.4
2023-05-05T11:45:00.776Z,22.7
2023-05-05T11:50:00.665Z,18.7
2023-05-05T11:55:00.785Z,23.8
2023-05-05T12:00:00.710Z,18.7
2023-05-05T12:05:01.176Z,17.6
2023-05-05T12:10:00.686Z,12.2
2023-05-05T12:15:00.650Z,16.6
2023-05-05T12:20:00.663Z,17.6
2023-05-05T12:25:00.655Z,12.2
2023-05-05T12:30:00.617Z,19.4
2023-05-05T12:35:00.805Z,18.7
2023-05-05T12:40:00.703Z,16.2
2023-05-05T12:45:00.643Z,20.9
2023-05-05T12:50:00.904Z,23.0
2023-05-05T12:55:00.684Z,12.6
2023-05-05T13:00:00.656Z,19.8
2023-05-05T13:05:00.726Z,16.9
2023-05-05T13:10:00.631Z,16.9
2023-05-05T13:15:00.667Z,20.9
2023-05-05T13:20:00.662Z,19.4
2023-05-05T13:25:00.695Z,20.2
2023-05-05T13:30:00.677Z,11.9
2023-05-05T13:35:01.381Z,15.5
2023-05-05T13:40:00.785Z,14.8
2023-05-05T13:45:02.315Z,23.4
2023-05-05T13:50:00.718Z,16.2
2023-05-05T13:55:01.207Z,16.6
2023-05-05T14:00:02.359Z,18.4
2023-05-05T14:05:00.688Z,24.8
2023-05-05T14:10:00.831Z,19.1
2023-05-05T14:15:00.727Z,14.8
2023-05-05T14:20:00.663Z,25.6
2023-05-05T14:25:00.669Z,20.5
2023-05-05T14:30:00.727Z,19.4
2023-05-05T14:35:00.697Z,23.0
2023-05-05T14:40:05.583Z,14.8
2023-05-05T14:45:00.706Z,23.4
2023-05-05T14:50:00.649Z,20.2
2023-05-05T14:55:00.743Z,19.1
2023-05-05T15:00:00.614Z,22.3
2023-05-05T15:05:00.676Z,16.9
2023-05-05T15:10:00.733Z,23.4
2023-05-05T15:15:00.702Z,14.0
2023-05-05T15:20:00.731Z,20.5
2023-05-05T15:25:00.849Z,20.9
2023-05-05T15:30:00.660Z,20.9
2023-05-05T15:35:00.729Z,11.2
2023-05-05T15:40:00.686Z,33.1
2023-05-05T15:45:00.690Z,23.8
2023-05-05T15:50:00.655Z,19.1
2023-05-05T15:55:00.720Z,17.3
2023-05-05T16:00:00.612Z,22.0
2023-05-05T16:05:00.668Z,20.9
2023-05-05T16:10:00.673Z,21.2
2023-05-05T16:15:00.682Z,19.8
2023-05-05T16:20:00.790Z,15.8
2023-05-05T16:25:00.633Z,19.1
2023-05-05T16:30:00.698Z,15.8
2023-05-05T16:35:00.600Z,16.9
2023-05-05T16:40:00.928Z,18.4
2023-05-05T16:45:00.691Z,6.5
2023-05-05T16:50:00.779Z,10.8
2023-05-05T16:55:00.671Z,15.5
2023-05-05T17:00:00.583Z,25.2
2023-05-05T17:05:00.876Z,19.8
2023-05-05T17:10:00.691Z,26.6
2023-05-05T17:15:00.745Z,24.8
2023-05-05T17:20:00.639Z,33.8
2023-05-05T17:25:00.675Z,23.0
2023-05-05T17:30:00.676Z,19.4
2023-05-05T17:35:00.570Z,16.9
2023-05-05T17:40:00.750Z,17.3
2023-05-05T17:45:00.683Z,26.3
2023-05-05T17:50:00.634Z,15.5
2023-05-05T17:55:00.648Z,22.3
2023-05-05T18:00:00.655Z,12.2
2023-05-05T18:05:00.648Z,17.6
2023-05-05T18:10:00.645Z,23.0
2023-05-05T18:15:00.715Z,16.9
2023-05-05T18:20:00.587Z,14.8
2023-05-05T18:25:00.670Z,20.5
2023-05-05T18:30:00.703Z,11.5
2023-05-05T18:35:00.673Z,23.0
2023-05-05T18:40:00.625Z,19.4
2023-05-05T18:45:00.664Z,10.1
2023-05-05T18:50:00.683Z,24.5
2023-05-05T18:55:00.580Z,18.7
2023-05-05T19:00:00.664Z,20.5
2023-05-05T19:05:01.142Z,16.2
2023-05-05T19:10:00.707Z,18.0
2023-05-05T19:15:00.623Z,23.4
2023-05-05T19:20:00.774Z,14.8
2023-05-05T19:25:00.603Z,27.0
2023-05-05T19:30:00.623Z,26.3
2023-05-05T19:35:00.698Z,20.2
2023-05-05T19:40:00.721Z,15.5
2023-05-05T19:45:00.645Z,15.8
2023-05-05T19:50:00.666Z,22.0
2023-05-05T19:55:00.657Z,33.1
2023-05-05T20:00:00.740Z,24.1
2023-05-05T20:05:00.641Z,18.7
2023-05-05T20:10:00.677Z,14.4
2023-05-05T20:15:00.658Z,16.9
2023-05-05T20:20:00.722Z,22.3
2023-05-05T20:25:00.611Z,23.0
2023-05-05T20:30:00.627Z,14.4
2023-05-05T20:35:00.639Z,29.5
2023-05-05T20:40:00.730Z,20.2
2023-05-05T20:45:00.637Z,22.7
2023-05-05T20:50:00.876Z,26.3
2023-05-05T20:55:00.698Z,24.5
2023-05-05T21:00:00.600Z,15.8
2023-05-05T21:05:00.667Z,17.3
2023-05-05T21:10:00.616Z,16.2
2023-05-05T21:15:00.718Z,27.7
2023-05-05T21:20:00.649Z,19.4
2023-05-05T21:25:00.627Z,20.2
2023-05-05T21:30:00.625Z,18.7
2023-05-05T21:35:00.682Z,12.2
2023-05-05T21:40:01.032Z,16.2
2023-05-05T21:45:00.721Z,19.8
2023-05-05T21:50:00.646Z,10.1
2023-05-05T21:55:00.658Z,20.2
2023-05-05T22:00:00.683Z,14.8
2023-05-05T22:05:00.652Z,13.7
2023-05-05T22:10:00.663Z,18.0
2023-05-05T22:15:00.616Z,13.7
2023-05-05T22:20:00.774Z,13.0
2023-05-05T22:25:00.630Z,9.4
2023-05-05T22:30:00.737Z,14.8
2023-05-05T22:35:00.750Z,4.7
2023-05-05T22:40:00.632Z,14.0
2023-05-05T22:45:00.637Z,11.9
2023-05-05T22:50:00.638Z,11.9
2023-05-05T22:55:00.720Z,11.9
2023-05-05T23:00:00.760Z,14.8
2023-05-05T23:05:00.621Z,16.6
2023-05-05T23:10:00.936Z,14.4
2023-05-05T23:15:00.626Z,17.3
2023-05-05T23:20:00.591Z,6.8
2023-05-05T23:25:00.801Z,6.8
2023-05-05T23:30:00.712Z,10.8
2023-05-05T23:35:00.685Z,14.8
2023-05-05T23:40:00.610Z,13.3
2023-05-05T23:45:00.678Z,15.5
2023-05-05T23:50:00.668Z,11.2
2023-05-05T23:55:00.693Z,16.2
